Time;durP1;ratioP1;P1;durP2;ratioP2;P2;SDS_P1;SDS_P2;PMS_P1;PMS_P2;Temp;Humidity;BMP_temperature;BMP_pressure;BME280_temperature;BME280_humidity;BME280_pressure;Samples;Min_cycle;Max_cycle;Signal;HPM_P1;HPM_P2
2022/02/16 00:03:35;;;;;;;1.38;0.30;;;5.70;99.90;;;;;;10385675;28;20104;-61
2022/02/16 00:08:36;;;;;;;1.33;0.30;;;5.60;99.90;;;;;;10390570;28;20057;-62
2022/02/16 00:13:38;;;;;;;0.43;0.30;;;5.60;99.90;;;;;;10386130;28;20198;-61
2022/02/16 00:18:41;;;;;;;2.67;0.30;;;5.60;99.90;;;;;;10388732;28;20050;-62
2022/02/16 00:23:42;;;;;;;2.70;0.50;;;5.50;99.90;;;;;;10384383;28;20099;-62
2022/02/16 00:28:44;;;;;;;2.53;0.75;;;5.60;99.90;;;;;;10385324;28;20160;-61
2022/02/16 00:33:48;;;;;;;0.93;0.28;;;5.60;99.90;;;;;;10381046;28;20057;-62
2022/02/16 00:38:49;;;;;;;0.98;0.38;;;5.60;99.90;;;;;;10385103;28;20038;-61
2022/02/16 00:43:51;;;;;;;2.30;0.47;;;5.70;99.90;;;;;;10380984;28;20069;-61
2022/02/16 00:48:53;;;;;;;6.43;0.50;;;5.60;99.90;;;;;;10391966;28;20804;-62
2022/02/16 00:53:54;;;;;;;1.02;0.40;;;5.60;99.90;;;;;;10380529;28;20519;-61
2022/02/16 00:58:56;;;;;;;2.15;0.75;;;5.60;99.90;;;;;;10383708;28;20628;-62
2022/02/16 01:03:58;;;;;;;2.33;0.30;;;5.60;99.90;;;;;;10381251;28;20045;-62
2022/02/16 01:08:59;;;;;;;0.50;0.30;;;5.50;99.90;;;;;;10378028;28;20489;-61
2022/02/16 01:14:01;;;;;;;4.03;0.30;;;5.50;99.90;;;;;;10381203;28;20033;-61
2022/02/16 01:19:03;;;;;;;2.88;0.40;;;5.50;99.90;;;;;;10384257;28;20073;-61
2022/02/16 01:24:08;;;;;;;0.63;0.30;;;5.50;99.90;;;;;;10382666;28;20132;-61
2022/02/16 01:29:09;;;;;;;4.93;0.55;;;5.50;99.90;;;;;;10387075;28;20049;-62
2022/02/16 01:34:11;;;;;;;5.93;0.85;;;5.40;99.90;;;;;;10388646;28;20053;-62
2022/02/16 01:39:13;;;;;;;4.70;0.32;;;5.40;99.90;;;;;;10367535;28;20085;-61
2022/02/16 01:44:19;;;;;;;1.17;0.50;;;5.50;99.90;;;;;;10374234;28;20037;-62
2022/02/16 01:49:21;;;;;;;4.18;0.40;;;5.40;99.90;;;;;;10384534;28;20681;-61
2022/02/16 01:54:23;;;;;;;4.90;0.35;;;5.40;99.90;;;;;;10384262;28;20123;-61
2022/02/16 01:59:26;;;;;;;2.85;0.50;;;5.40;99.90;;;;;;10380426;28;20385;-60
2022/02/16 02:04:28;;;;;;;2.75;0.30;;;5.40;99.90;;;;;;10381039;28;20202;-61
2022/02/16 02:09:30;;;;;;;1.35;0.40;;;5.40;99.90;;;;;;10391188;28;20797;-61
2022/02/16 02:14:31;;;;;;;2.47;0.40;;;5.40;99.90;;;;;;10377387;28;20091;-60
2022/02/16 02:19:33;;;;;;;4.00;0.50;;;5.40;99.90;;;;;;10384437;28;20137;-61
2022/02/16 02:24:35;;;;;;;1.52;0.35;;;5.40;99.90;;;;;;10390178;28;20487;-61
2022/02/16 02:29:39;;;;;;;3.70;1.15;;;5.40;99.90;;;;;;10389808;28;20076;-60
2022/02/16 02:34:40;;;;;;;7.60;0.68;;;5.30;99.90;;;;;;10392223;28;20103;-60
2022/02/16 02:39:42;;;;;;;4.95;0.60;;;5.30;99.90;;;;;;10388149;28;20736;-61
2022/02/16 02:44:44;;;;;;;1.05;0.45;;;5.30;99.90;;;;;;10392433;28;20119;-61
2022/02/16 02:49:45;;;;;;;3.13;0.70;;;5.30;99.90;;;;;;10387369;28;20095;-60
2022/02/16 02:54:47;;;;;;;3.60;0.65;;;5.30;99.90;;;;;;10386555;28;20738;-61
2022/02/16 02:59:49;;;;;;;3.45;0.60;;;5.30;99.90;;;;;;10382906;28;20131;-62
2022/02/16 03:04:50;;;;;;;0.77;0.40;;;5.30;99.90;;;;;;10384753;28;20558;-62
2022/02/16 03:09:52;;;;;;;2.05;1.38;;;5.30;99.90;;;;;;10387381;28;20045;-62
2022/02/16 03:14:54;;;;;;;5.93;0.75;;;5.30;99.90;;;;;;10377619;28;20517;-62
2022/02/16 03:19:55;;;;;;;3.58;0.73;;;5.30;99.90;;;;;;10387700;28;20077;-61
2022/02/16 03:24:58;;;;;;;2.45;0.75;;;5.30;99.90;;;;;;10386159;28;20099;-61
2022/02/16 03:30:01;;;;;;;2.40;0.55;;;5.30;99.90;;;;;;10390247;28;20037;-62
2022/02/16 03:35:04;;;;;;;1.60;0.40;;;5.30;99.90;;;;;;10385407;28;20048;-62
2022/02/16 03:40:07;;;;;;;2.55;0.40;;;5.30;99.90;;;;;;10386929;28;20123;-62
2022/02/16 03:45:09;;;;;;;1.58;0.40;;;5.30;99.90;;;;;;10388821;28;20512;-62
2022/02/16 03:50:11;;;;;;;4.63;0.55;;;5.30;99.90;;;;;;10385026;28;20045;-62
2022/02/16 03:55:13;;;;;;;0.93;0.50;;;5.30;99.90;;;;;;10385140;28;20042;-63
2022/02/16 04:00:15;;;;;;;2.83;0.65;;;5.20;99.90;;;;;;10382944;28;20211;-60
2022/02/16 04:05:17;;;;;;;4.05;0.93;;;5.30;99.90;;;;;;10384285;28;20041;-61
2022/02/16 04:10:19;;;;;;;0.63;0.30;;;5.30;99.90;;;;;;10387816;28;20115;-61
2022/02/16 04:15:21;;;;;;;1.75;0.70;;;5.20;99.90;;;;;;10387994;28;20134;-61
2022/02/16 04:20:23;;;;;;;3.38;0.65;;;5.30;99.90;;;;;;10388328;28;20065;-61
2022/02/16 04:25:25;;;;;;;1.63;0.60;;;5.30;99.90;;;;;;10391017;28;20152;-61
2022/02/16 04:30:27;;;;;;;3.28;0.50;;;5.30;99.90;;;;;;10382019;28;20107;-60
2022/02/16 04:35:29;;;;;;;2.13;0.50;;;5.30;99.90;;;;;;10384403;28;20058;-61
2022/02/16 04:40:30;;;;;;;1.73;0.30;;;5.30;99.90;;;;;;10382580;28;20107;-62
2022/02/16 04:45:33;;;;;;;3.33;0.55;;;5.30;99.90;;;;;;10386366;28;20112;-62
2022/02/16 04:50:35;;;;;;;1.45;0.40;;;5.40;99.90;;;;;;10385019;28;20045;-62
2022/02/16 04:55:39;;;;;;;6.45;0.60;;;5.40;99.90;;;;;;10390293;28;20053;-62
2022/02/16 05:00:41;;;;;;;1.67;0.50;;;5.40;99.90;;;;;;10387085;28;20496;-61
2022/02/16 05:05:42;;;;;;;2.25;0.30;;;5.40;99.90;;;;;;10382233;28;20068;-62
2022/02/16 05:10:44;;;;;;;4.72;0.40;;;5.50;99.90;;;;;;10383024;28;20073;-62
2022/02/16 05:15:46;;;;;;;2.35;0.60;;;5.50;99.90;;;;;;10377610;28;20045;-62
2022/02/16 05:20:48;;;;;;;2.55;0.50;;;5.60;99.90;;;;;;10381946;28;20409;-62
2022/02/16 05:25:49;;;;;;;1.45;0.63;;;5.60;99.90;;;;;;10385320;28;20107;-61
2022/02/16 05:30:51;;;;;;;2.33;0.50;;;5.60;99.90;;;;;;10386410;28;20073;-63
2022/02/16 05:35:53;;;;;;;1.83;0.60;;;5.70;99.90;;;;;;10381488;28;20500;-63
2022/02/16 05:40:55;;;;;;;2.45;0.30;;;5.70;99.90;;;;;;10384460;28;20135;-61
2022/02/16 05:45:56;;;;;;;2.58;0.52;;;5.70;99.90;;;;;;10382947;28;20073;-61
2022/02/16 05:50:58;;;;;;;3.72;0.60;;;5.70;99.90;;;;;;10381887;28;20501;-62
2022/02/16 05:56:00;;;;;;;2.83;0.30;;;5.70;99.90;;;;;;10382544;28;20045;-62
2022/02/16 06:01:02;;;;;;;2.38;0.47;;;5.80;99.90;;;;;;10383376;28;20334;-62
2022/02/16 06:06:04;;;;;;;6.47;0.50;;;5.70;99.90;;;;;;10384469;28;20069;-62
2022/02/16 06:11:10;;;;;;;1.85;0.43;;;5.80;99.90;;;;;;10380041;28;20045;-62
2022/02/16 06:16:12;;;;;;;0.43;0.30;;;5.80;99.90;;;;;;10379939;28;20048;-62
2022/02/16 06:21:14;;;;;;;0.60;0.32;;;5.80;99.90;;;;;;10378787;28;20057;-62
2022/02/16 06:26:18;;;;;;;2.60;0.50;;;5.90;99.90;;;;;;10400767;28;20125;-62
2022/02/16 06:31:20;;;;;;;2.40;0.30;;;5.90;99.90;;;;;;10382876;28;20491;-62
2022/02/16 06:36:22;;;;;;;5.78;0.52;;;5.80;99.90;;;;;;10382529;28;21934;-65
2022/02/16 06:41:24;;;;;;;2.42;0.32;;;5.90;99.90;;;;;;10384263;28;20508;-60
2022/02/16 06:46:25;;;;;;;5.50;0.47;;;5.90;99.90;;;;;;10378342;28;20054;-61
2022/02/16 06:51:27;;;;;;;4.40;0.40;;;5.90;99.90;;;;;;10379877;28;20056;-61
2022/02/16 06:56:30;;;;;;;0.75;0.43;;;5.90;99.90;;;;;;10382365;28;20054;-61
2022/02/16 07:01:32;;;;;;;1.52;0.40;;;5.90;99.90;;;;;;10382313;28;20488;-61
2022/02/16 07:06:34;;;;;;;1.33;0.47;;;5.90;99.90;;;;;;10387789;28;20180;-65
2022/02/16 07:11:36;;;;;;;2.50;0.40;;;5.90;99.90;;;;;;10390626;28;20142;-62
2022/02/16 07:16:37;;;;;;;1.98;0.40;;;5.90;99.90;;;;;;10384059;28;20432;-64
2022/02/16 07:21:39;;;;;;;3.92;0.40;;;5.90;99.90;;;;;;10387356;28;20049;-64
2022/02/16 07:26:41;;;;;;;4.20;0.50;;;5.90;99.90;;;;;;10386900;28;20111;-64
2022/02/16 07:31:42;;;;;;;2.53;0.50;;;5.90;99.90;;;;;;10386265;28;20111;-64
2022/02/16 07:36:44;;;;;;;3.17;0.50;;;5.90;99.90;;;;;;10388947;28;20130;-64
2022/02/16 07:41:46;;;;;;;2.95;0.57;;;5.90;99.90;;;;;;10386488;28;20041;-64
2022/02/16 07:46:48;;;;;;;1.50;0.60;;;6.00;99.90;;;;;;10387035;28;20050;-64
2022/02/16 07:51:49;;;;;;;2.50;0.43;;;6.00;99.90;;;;;;10388394;28;20072;-63
2022/02/16 07:56:51;;;;;;;4.90;0.40;;;6.10;99.90;;;;;;10381566;28;20103;-64
2022/02/16 08:01:53;;;;;;;2.45;0.32;;;6.00;99.90;;;;;;10383971;28;20053;-64
2022/02/16 08:06:54;;;;;;;0.80;0.40;;;6.10;99.90;;;;;;10384774;28;20147;-63
2022/02/16 08:11:56;;;;;;;1.20;0.30;;;6.10;99.90;;;;;;10387472;28;20921;-65
2022/02/16 08:16:58;;;;;;;1.75;0.63;;;6.10;99.90;;;;;;10386381;28;20060;-66
2022/02/16 08:22:00;;;;;;;6.82;0.43;;;6.10;99.90;;;;;;10386210;28;20053;-66
2022/02/16 08:27:02;;;;;;;2.53;0.30;;;6.20;99.90;;;;;;10384008;28;20053;-66
2022/02/16 08:32:04;;;;;;;0.85;0.20;;;6.20;99.90;;;;;;10384418;28;20046;-65
2022/02/16 08:37:05;;;;;;;7.90;0.50;;;6.20;99.90;;;;;;10384103;28;20069;-65
2022/02/16 08:42:07;;;;;;;0.55;0.40;;;6.30;99.90;;;;;;10384890;28;20099;-65
2022/02/16 08:47:11;;;;;;;3.35;0.35;;;6.30;99.90;;;;;;10387582;28;20053;-65
2022/02/16 08:52:13;;;;;;;0.88;0.30;;;6.30;99.90;;;;;;10382338;28;20131;-66
2022/02/16 08:57:15;;;;;;;0.60;0.30;;;6.40;99.90;;;;;;10385505;28;20130;-66
2022/02/16 09:02:16;;;;;;;1.45;0.22;;;6.40;99.90;;;;;;10378162;28;20049;-66
2022/02/16 09:07:30;;;;;;;1.33;0.30;;;6.40;99.90;;;;;;10381712;28;20053;-66
2022/02/16 09:12:32;;;;;;;2.33;0.20;;;6.50;99.90;;;;;;10393901;28;20393;-66
2022/02/16 09:17:34;;;;;;;0.98;0.30;;;6.50;99.90;;;;;;10384779;28;20104;-67
2022/02/16 09:22:37;;;;;;;3.75;0.30;;;6.60;99.90;;;;;;10381148;28;20109;-67
2022/02/16 09:27:39;;;;;;;2.25;0.20;;;6.60;99.90;;;;;;10385201;28;20084;-67
2022/02/16 09:32:41;;;;;;;1.73;0.25;;;6.60;99.90;;;;;;10381721;28;20111;-66
2022/02/16 09:37:44;;;;;;;1.52;0.30;;;6.70;99.90;;;;;;10376720;28;20050;-67
2022/02/16 09:42:45;;;;;;;0.90;0.40;;;6.70;99.90;;;;;;10381335;28;20085;-67
2022/02/16 09:47:47;;;;;;;3.60;0.43;;;6.80;99.90;;;;;;10382843;28;20170;-67
2022/02/16 09:52:49;;;;;;;1.38;0.32;;;6.80;99.90;;;;;;10381056;28;20068;-66
2022/02/16 09:57:51;;;;;;;1.52;0.40;;;6.90;99.90;;;;;;10380620;28;20062;-66
2022/02/16 10:02:53;;;;;;;2.15;0.50;;;6.90;99.90;;;;;;10385060;28;20119;-66
2022/02/16 10:07:55;;;;;;;2.08;0.70;;;7.00;99.90;;;;;;10379912;28;20064;-66
2022/02/16 10:12:58;;;;;;;1.65;0.60;;;7.00;99.90;;;;;;10376320;28;20126;-66
2022/02/16 10:18:07;;;;;;;0.95;0.52;;;7.00;99.90;;;;;;10384169;28;20045;-67
2022/02/16 10:23:09;;;;;;;3.58;1.10;;;7.10;99.90;;;;;;10377070;28;20099;-67
2022/02/16 10:28:14;;;;;;;3.17;0.77;;;7.00;99.90;;;;;;10380012;28;20065;-67
2022/02/16 10:33:22;;;;;;;2.50;0.43;;;7.10;99.90;;;;;;10388187;28;20053;-67
2022/02/16 10:38:23;;;;;;;4.55;0.43;;;7.10;99.90;;;;;;10381459;28;20067;-67
2022/02/16 10:43:39;;;;;;;0.80;0.40;;;7.10;99.90;;;;;;10388511;28;20076;-66
2022/02/16 10:48:41;;;;;;;0.73;0.50;;;7.10;99.90;;;;;;10389460;28;20057;-67
2022/02/16 10:53:43;;;;;;;1.45;0.57;;;7.10;99.90;;;;;;10390313;28;20528;-67
2022/02/16 10:58:44;;;;;;;1.30;0.57;;;7.20;99.90;;;;;;10388729;28;20104;-67
2022/02/16 11:03:51;;;;;;;1.25;0.57;;;7.30;99.90;;;;;;10388845;28;20722;-67
2022/02/16 11:08:54;;;;;;;2.60;0.40;;;7.30;99.90;;;;;;10389384;28;20053;-69
2022/02/16 11:14:03;;;;;;;2.40;0.30;;;7.40;99.90;;;;;;10385392;28;20048;-68
2022/02/16 11:19:21;;;;;;;1.85;0.30;;;7.50;99.90;;;;;;10384615;28;20500;-68
2022/02/16 11:24:41;;;;;;;1.55;0.28;;;7.70;99.90;;;;;;10388981;28;20049;-68
2022/02/16 11:29:43;;;;;;;0.80;0.30;;;7.80;99.90;;;;;;10389487;28;20050;-69
2022/02/16 11:35:05;;;;;;;0.63;0.20;;;7.90;99.90;;;;;;10387333;28;20152;-69
2022/02/16 11:40:12;;;;;;;0.85;0.30;;;8.00;99.90;;;;;;10385616;28;20468;-69
2022/02/16 11:45:38;;;;;;;0.40;0.20;;;8.10;99.90;;;;;;10390544;28;20080;-70
2022/02/16 11:50:40;;;;;;;0.20;0.20;;;8.20;99.90;;;;;;10382912;28;20068;-70
2022/02/16 11:55:44;;;;;;;0.30;0.20;;;8.20;99.90;;;;;;10382583;28;20115;-70
2022/02/16 12:00:52;;;;;;;3.90;0.22;;;8.30;99.90;;;;;;10389624;28;20211;-69
2022/02/16 12:06:09;;;;;;;0.20;0.20;;;8.40;99.90;;;;;;10384462;28;20523;-69
2022/02/16 12:11:19;;;;;;;0.52;0.20;;;8.60;99.90;;;;;;10389597;28;20480;-68
2022/02/16 12:16:26;;;;;;;0.68;0.20;;;8.70;99.90;;;;;;10386089;28;20451;-68
2022/02/16 12:21:37;;;;;;;0.75;0.55;;;8.70;99.90;;;;;;10389638;28;20128;-68
2022/02/16 12:26:43;;;;;;;0.80;0.30;;;8.80;99.90;;;;;;10383716;28;20115;-69
2022/02/16 12:31:49;;;;;;;1.83;0.10;;;8.90;99.90;;;;;;10386491;28;20037;-60
2022/02/16 12:36:57;;;;;;;1.08;0.20;;;8.90;99.90;;;;;;10381218;28;20049;-61
2022/02/16 12:42:06;;;;;;;1.63;0.20;;;9.00;99.90;;;;;;10382245;28;20072;-60
2022/02/16 12:47:09;;;;;;;0.15;0.10;;;9.10;99.90;;;;;;10378573;28;20045;-60
2022/02/16 12:52:12;;;;;;;0.43;0.17;;;9.20;99.90;;;;;;10380413;28;20049;-60
2022/02/16 12:57:14;;;;;;;0.32;0.10;;;9.20;99.90;;;;;;10382981;28;20103;-60
2022/02/16 13:02:18;;;;;;;0.47;0.20;;;9.30;99.90;;;;;;10373927;28;20076;-67
2022/02/16 13:07:21;;;;;;;0.10;0.10;;;9.50;99.90;;;;;;10379171;28;20053;-66
2022/02/16 13:12:41;;;;;;;0.10;0.10;;;9.70;99.90;;;;;;10385111;28;20064;-67
2022/02/16 13:17:52;;;;;;;2.55;0.30;;;9.70;99.90;;;;;;10379800;28;20259;-66
2022/02/16 13:22:57;;;;;;;0.10;0.10;;;9.80;99.90;;;;;;10381910;28;20389;-68
2022/02/16 13:28:03;;;;;;;0.20;0.10;;;10.00;99.90;;;;;;10385832;28;20126;-68
2022/02/16 13:33:30;;;;;;;0.20;0.10;;;10.00;99.90;;;;;;10369628;28;20481;-69
2022/02/16 13:38:34;;;;;;;0.03;0.00;;;10.10;99.90;;;;;;10381246;28;20066;-69
2022/02/16 13:44:00;;;;;;;0.10;0.10;;;10.20;99.90;;;;;;10382647;28;20052;-68
2022/02/16 13:49:10;;;;;;;0.22;0.10;;;10.20;99.90;;;;;;10383104;28;20103;-67
2022/02/16 13:54:41;;;;;;;0.38;0.10;;;10.20;99.90;;;;;;10381401;28;20041;-67
2022/02/16 13:59:56;;;;;;;0.60;0.10;;;10.20;99.90;;;;;;10373832;28;20488;-66
2022/02/16 14:05:01;;;;;;;0.10;0.10;;;10.30;99.90;;;;;;10381800;28;20448;-67
2022/02/16 14:10:23;;;;;;;0.20;0.10;;;10.20;99.90;;;;;;10383134;28;20531;-67
2022/02/16 14:15:26;;;;;;;1.13;0.10;;;10.30;99.90;;;;;;10388241;28;20053;-68
2022/02/16 14:20:28;;;;;;;1.08;0.20;;;10.20;99.90;;;;;;10387755;28;20061;-68
2022/02/16 14:25:30;;;;;;;0.35;0.10;;;10.30;99.90;;;;;;10386511;28;20053;-68
2022/02/16 14:30:32;;;;;;;0.30;0.10;;;10.40;99.90;;;;;;10393854;28;20049;-68
2022/02/16 14:35:34;;;;;;;0.30;0.10;;;10.50;99.90;;;;;;10389742;28;20050;-67
2022/02/16 14:40:36;;;;;;;0.08;0.00;;;10.60;99.90;;;;;;10388761;28;20053;-67
2022/02/16 14:45:37;;;;;;;1.17;0.10;;;10.70;99.90;;;;;;10389967;28;20135;-67
2022/02/16 14:50:40;;;;;;;0.55;0.10;;;10.70;99.90;;;;;;10388741;28;20832;-67
2022/02/16 14:55:41;;;;;;;0.30;0.13;;;10.70;99.90;;;;;;10382058;28;20480;-66
2022/02/16 15:00:46;;;;;;;0.00;0.00;;;10.60;99.90;;;;;;10390458;28;20045;-67
2022/02/16 15:05:48;;;;;;;0.00;0.00;;;10.50;99.90;;;;;;10391192;28;20053;-67
2022/02/16 15:10:50;;;;;;;0.40;0.20;;;10.40;99.90;;;;;;10388092;28;20073;-67
2022/02/16 15:15:52;;;;;;;0.45;0.20;;;10.40;99.90;;;;;;10386063;28;20041;-67
2022/02/16 15:21:10;;;;;;;0.95;0.20;;;10.30;99.90;;;;;;10383182;28;20045;-67
2022/02/16 15:26:11;;;;;;;0.75;0.10;;;10.30;99.90;;;;;;10384271;28;20049;-66
2022/02/16 15:31:13;;;;;;;0.32;0.10;;;10.30;99.90;;;;;;10386933;28;20041;-67
2022/02/16 15:36:15;;;;;;;4.43;0.30;;;10.40;99.90;;;;;;10384793;28;20053;-67
2022/02/16 15:41:18;;;;;;;0.30;0.20;;;10.40;99.90;;;;;;10383653;28;20108;-67
2022/02/16 15:46:20;;;;;;;0.82;0.30;;;10.40;99.90;;;;;;10379425;28;20190;-68
2022/02/16 15:51:21;;;;;;;1.45;0.13;;;10.50;99.90;;;;;;10381163;28;20049;-67
2022/02/16 15:56:23;;;;;;;0.40;0.30;;;10.50;99.90;;;;;;10381515;28;21681;-68
2022/02/16 16:01:25;;;;;;;1.27;0.22;;;10.60;99.90;;;;;;10380692;28;20890;-68
2022/02/16 16:06:27;;;;;;;0.30;0.20;;;10.60;99.90;;;;;;10388214;28;20048;-67
2022/02/16 16:11:28;;;;;;;0.30;0.20;;;10.40;99.90;;;;;;10384987;28;20056;-66
2022/02/16 16:16:31;;;;;;;0.77;0.38;;;10.30;99.90;;;;;;10387046;28;20080;-66
2022/02/16 16:21:34;;;;;;;2.55;0.40;;;10.30;99.90;;;;;;10376809;28;20045;-66
2022/02/16 16:26:36;;;;;;;0.80;0.30;;;10.30;99.90;;;;;;10381085;28;20581;-66
2022/02/16 16:31:38;;;;;;;1.15;0.30;;;10.30;99.90;;;;;;10375238;28;20119;-66
2022/02/16 16:36:41;;;;;;;1.13;0.30;;;10.40;99.90;;;;;;10380015;28;20532;-66
2022/02/16 16:41:42;;;;;;;1.85;0.60;;;10.50;99.90;;;;;;10383716;28;20060;-66
2022/02/16 16:46:46;;;;;;;0.93;0.60;;;10.50;99.90;;;;;;10383104;28;20111;-67
2022/02/16 16:51:53;;;;;;;1.20;0.40;;;10.60;99.90;;;;;;10380184;28;20047;-67
2022/02/16 16:56:55;;;;;;;1.10;0.50;;;10.70;99.90;;;;;;10377628;28;20505;-66
2022/02/16 17:01:57;;;;;;;0.70;0.40;;;10.70;99.90;;;;;;10377998;28;20161;-66
2022/02/16 17:06:58;;;;;;;0.40;0.20;;;10.70;99.90;;;;;;10380657;28;20077;-66
2022/02/16 17:12:00;;;;;;;0.40;0.25;;;10.70;99.90;;;;;;10380306;28;20077;-66
2022/02/16 17:17:02;;;;;;;0.35;0.10;;;10.70;99.90;;;;;;10381570;28;20044;-67
2022/02/16 17:22:06;;;;;;;0.70;0.38;;;10.70;99.90;;;;;;10383761;28;20053;-67
2022/02/16 17:27:07;;;;;;;0.70;0.20;;;10.80;99.90;;;;;;10380693;28;20069;-63
2022/02/16 17:32:10;;;;;;;0.30;0.20;;;10.80;99.90;;;;;;10379098;28;20042;-63
2022/02/16 17:37:12;;;;;;;0.30;0.15;;;10.70;99.90;;;;;;10381719;28;20049;-63
2022/02/16 17:42:13;;;;;;;1.75;0.20;;;10.80;99.90;;;;;;10382684;28;20095;-63
2022/02/16 17:47:20;;;;;;;1.67;0.30;;;10.80;99.90;;;;;;10383864;28;20041;-63
2022/02/16 17:52:22;;;;;;;1.40;0.30;;;10.90;99.90;;;;;;10385657;28;20042;-62
2022/02/16 17:57:24;;;;;;;1.23;0.30;;;10.90;99.90;;;;;;10384811;28;20118;-62
2022/02/16 18:02:26;;;;;;;1.33;0.30;;;11.00;99.90;;;;;;10384899;28;20077;-62
2022/02/16 18:07:28;;;;;;;1.63;0.40;;;11.00;99.90;;;;;;10382452;28;20124;-64
2022/02/16 18:12:30;;;;;;;1.08;0.45;;;11.10;99.90;;;;;;10378586;28;20103;-63
2022/02/16 18:17:32;;;;;;;1.52;0.68;;;11.00;99.90;;;;;;10381155;28;20041;-64
2022/02/16 18:22:34;;;;;;;1.67;0.70;;;11.00;99.90;;;;;;10386243;28;20056;-65
2022/02/16 18:27:36;;;;;;;1.45;0.98;;;11.10;99.90;;;;;;10381164;28;20038;-64
2022/02/16 18:32:38;;;;;;;1.38;0.70;;;11.00;99.90;;;;;;10379608;28;20061;-63
2022/02/16 18:37:40;;;;;;;3.60;0.98;;;11.10;99.90;;;;;;10376773;28;20070;-63
2022/02/16 18:42:42;;;;;;;2.10;0.95;;;11.00;99.90;;;;;;10379213;28;20155;-62
2022/02/16 18:47:44;;;;;;;1.73;0.95;;;10.90;99.90;;;;;;10382231;28;20045;-63
2022/02/16 18:52:45;;;;;;;1.55;1.00;;;10.80;99.90;;;;;;10383971;28;20095;-63
2022/02/16 18:57:47;;;;;;;3.00;1.00;;;10.80;99.90;;;;;;10382005;28;20060;-62
2022/02/16 19:02:49;;;;;;;1.50;0.82;;;10.80;99.90;;;;;;10387362;28;20053;-62
2022/02/16 19:07:52;;;;;;;4.63;1.00;;;10.80;99.90;;;;;;10393863;28;20060;-61
2022/02/16 19:12:54;;;;;;;3.70;1.20;;;10.90;99.90;;;;;;10385719;28;20519;-61
2022/02/16 19:17:56;;;;;;;3.45;1.58;;;10.90;99.90;;;;;;10388793;28;20107;-62
2022/02/16 19:22:57;;;;;;;3.80;1.23;;;10.90;99.90;;;;;;10387831;28;20076;-62
2022/02/16 19:27:59;;;;;;;7.43;1.50;;;11.00;99.90;;;;;;10386809;28;20124;-62
2022/02/16 19:33:01;;;;;;;5.13;1.63;;;11.10;99.90;;;;;;10389865;28;20124;-63
2022/02/16 19:38:03;;;;;;;4.35;1.08;;;11.20;99.90;;;;;;10386192;28;20139;-62
2022/02/16 19:43:05;;;;;;;3.88;0.80;;;11.30;99.90;;;;;;10385235;28;20229;-62
2022/02/16 19:48:07;;;;;;;1.65;0.73;;;11.40;99.90;;;;;;10380853;28;20069;-62
2022/02/16 19:53:10;;;;;;;1.35;0.65;;;11.50;99.90;;;;;;10382659;28;20045;-62
2022/02/16 19:58:12;;;;;;;2.67;0.60;;;11.50;99.90;;;;;;10383928;28;20131;-62
2022/02/16 20:03:14;;;;;;;2.97;0.73;;;11.60;99.90;;;;;;10382134;28;20161;-61
2022/02/16 20:08:17;;;;;;;1.27;0.52;;;11.60;99.90;;;;;;10376840;28;20144;-63
2022/02/16 20:13:19;;;;;;;2.33;0.32;;;11.50;99.90;;;;;;10382371;28;20492;-63
2022/02/16 20:18:21;;;;;;;1.20;0.40;;;11.50;99.90;;;;;;10383185;28;20135;-62
2022/02/16 20:23:28;;;;;;;0.77;0.38;;;11.60;99.90;;;;;;10382843;28;20132;-62
2022/02/16 20:28:29;;;;;;;0.40;0.20;;;11.70;99.90;;;;;;10381127;28;20107;-63
2022/02/16 20:33:31;;;;;;;1.02;0.30;;;11.70;99.90;;;;;;10383285;28;20053;-63
2022/02/16 20:38:32;;;;;;;0.75;0.20;;;11.70;99.90;;;;;;10382878;28;20072;-64
2022/02/16 20:43:34;;;;;;;3.33;0.38;;;11.80;99.90;;;;;;10382074;28;20069;-63
2022/02/16 20:48:36;;;;;;;0.80;0.30;;;11.70;99.90;;;;;;10389389;28;20080;-63
2022/02/16 20:53:37;;;;;;;1.30;0.20;;;11.70;99.90;;;;;;10383533;28;20103;-63
2022/02/16 20:58:39;;;;;;;0.70;0.40;;;11.70;99.90;;;;;;10386802;28;20060;-63
2022/02/16 21:03:41;;;;;;;1.48;0.30;;;11.80;99.90;;;;;;10385851;28;20077;-62
2022/02/16 21:08:43;;;;;;;2.15;0.30;;;11.80;99.90;;;;;;10383965;28;20641;-62
2022/02/16 21:13:44;;;;;;;1.67;0.35;;;11.80;99.90;;;;;;10386161;28;20076;-62
2022/02/16 21:18:46;;;;;;;2.00;0.30;;;11.80;99.90;;;;;;10384137;28;20130;-62
2022/02/16 21:23:48;;;;;;;0.90;0.30;;;11.80;99.90;;;;;;10386636;28;20582;-62
2022/02/16 21:28:51;;;;;;;2.35;0.30;;;11.80;99.90;;;;;;10382829;28;20119;-61
2022/02/16 21:34:10;;;;;;;1.15;0.40;;;11.80;99.90;;;;;;10379521;28;20059;-61
2022/02/16 21:39:15;;;;;;;0.68;0.30;;;11.90;99.90;;;;;;10375120;28;20433;-61
2022/02/16 21:44:17;;;;;;;2.08;0.20;;;12.00;99.90;;;;;;10384920;28;20041;-62
2022/02/16 21:49:19;;;;;;;0.10;0.10;;;12.00;99.90;;;;;;10381105;28;20060;-62
2022/02/16 21:54:20;;;;;;;0.43;0.20;;;12.20;99.90;;;;;;10381880;28;20115;-62
2022/02/16 21:59:22;;;;;;;0.65;0.20;;;12.20;99.90;;;;;;10380575;28;20072;-62
2022/02/16 22:04:24;;;;;;;0.40;0.20;;;12.30;99.90;;;;;;10382871;28;20076;-63
2022/02/16 22:09:26;;;;;;;0.50;0.10;;;12.40;99.90;;;;;;10377709;28;20077;-63
2022/02/16 22:14:28;;;;;;;0.30;0.10;;;12.40;99.90;;;;;;10380197;28;20111;-63
2022/02/16 22:19:30;;;;;;;1.67;0.20;;;12.50;99.90;;;;;;10388358;28;20555;-63
2022/02/16 22:24:31;;;;;;;0.20;0.10;;;12.60;99.90;;;;;;10381685;28;20084;-63
2022/02/16 22:29:33;;;;;;;0.55;0.10;;;12.70;99.90;;;;;;10386840;28;20460;-62
2022/02/16 22:34:35;;;;;;;0.65;0.13;;;12.60;99.90;;;;;;10382376;28;20050;-63
2022/02/16 22:39:36;;;;;;;0.50;0.20;;;12.50;99.90;;;;;;10386548;28;20156;-63
2022/02/16 22:44:39;;;;;;;0.22;0.10;;;12.60;99.90;;;;;;10385983;28;20102;-63
2022/02/16 22:49:41;;;;;;;0.10;0.10;;;12.50;99.90;;;;;;10388258;28;20060;-62
2022/02/16 22:54:43;;;;;;;1.15;0.10;;;12.60;99.90;;;;;;10390466;28;20038;-62
2022/02/16 22:59:44;;;;;;;0.05;0.00;;;12.60;99.90;;;;;;10387460;28;20069;-62
2022/02/16 23:04:46;;;;;;;0.00;0.00;;;12.70;99.90;;;;;;10394470;28;20049;-62
2022/02/16 23:15:15;;;;;;;0.13;0.00;;;12.80;99.90;;;;;;10370208;28;20074;-63
2022/02/16 23:20:17;;;;;;;0.25;0.03;;;12.90;99.90;;;;;;10382820;28;20663;-63
2022/02/16 23:25:19;;;;;;;0.00;0.00;;;12.90;99.90;;;;;;10395280;28;20068;-63
2022/02/16 23:30:21;;;;;;;0.10;0.00;;;13.00;99.90;;;;;;10388382;28;20136;-63
2022/02/16 23:35:24;;;;;;;0.57;0.00;;;12.90;99.90;;;;;;10402860;28;20054;-63
2022/02/16 23:40:26;;;;;;;0.10;0.00;;;13.00;99.90;;;;;;10385666;28;20061;-63
2022/02/16 23:45:28;;;;;;;0.30;0.00;;;13.00;99.90;;;;;;10379614;28;20107;-64
2022/02/16 23:50:31;;;;;;;0.00;0.00;;;13.00;99.90;;;;;;10385344;28;20069;-64
2022/02/16 23:55:34;;;;;;;0.00;0.00;;;12.90;99.90;;;;;;10383782;28;20107;-64
